Portada
METAR-TAF:

METAR-TAF

Aeroports :

George Town, Grand Cayman, Illes Caiman

latitud: 19-17N, longitud: 081-21W, altitud: 3 m

Observació

L'informe es va fer fa 53 minuts, a les 12:00 UTC
Vent 3 kt amb direcció variable
Temperatura 25°C
Humitat 69%
Pressió 1013 hPa
Visibilitat 10 km o més
Escasses núvols a una alçada de 2000 ft

METAR: MWCR 191200Z VRB03KT 9999 FEW020 25/19 Q1013

Hora: 07:53 (12:53 UTC)

Pronòstic

L'informe es va fer fa 1 hora i 53 minuts, a les 11:00 UTC
Pronòstic vàlid del 19 a les 12 UTC al 20 a les 12 UTC
Vent 10 kt del Nord
Visibilitat 10 km o més
Escasses núvols a una alçada de 1800 ft
Probabilitat 30% :
Temporalment
l' 19 a les 16 UTC al 19 a les 19 UTC
Visibilitat: 9000 m
Núvols disperses a una alçada de 1600 ft
Cel ennuvolat a una alçada de 3000 ft
xàfecs de pluja

TAF: MWCR 191100Z 1912/2012 01010KT 9999 FEW018 PROB30 TEMPO 1916/1919 9000 -SHRA SCT016 BKN030

Observacions i pronòstics meteorològics de més de 4000 aeroports (METAR i TAF).

Les estacions disponibles són els punts grocs i vermells al mapa.

Posi el ratolí al punt desitjat per veure el nom de l'estació.

Feu clic per veure les observacions i els pronòstics meteorològics.

Per canviar el mapa: feu clic els botons verds amb una creu de color negre per apropar; al botó verd amb un guió per allunyar la imatge; o en les fletxes verdes per a mapes adjacents.


METAR-TAF: